Terminal Aerodrome Forecast
Issued by NWS

Home | Current Version | Previous Version | Text Only | Print | Product List | Glossary On
Versions: 1 2 3 4 5 6 7 8 9 10 11 12 13
000
FTUS43 KICT 250451 AAB
TAFHUT
TAF AMD
KHUT 250451Z 2505/2524 VRB05KT P6SM SCT015 BKN150
     FM250600 VRB05KT P6SM VCTS SCT015 BKN040CB
      TEMPO 2506/2508 VRB20G30KT 3SM TSRA BKN015 OVC050CB
     FM250800 25007KT P6SM VCSH SCT015 BKN040
     FM251100 35015G22KT P6SM SCT015 BKN250
     FM251500 35018G28KT P6SM SKC=

USA.gov is the U.S. government's official web portal to all federal, state and local government web resources and services.